createdAt,value
2019-01-14T00:01:28.602Z,25.17
2019-01-14T00:04:02.079Z,22.60
2019-01-14T00:06:36.244Z,24.13
2019-01-14T00:09:11.448Z,22.13
2019-01-14T00:11:45.449Z,26.70
2019-01-14T00:14:18.913Z,38.83
2019-01-14T00:16:54.575Z,46.30
2019-01-14T00:19:28.312Z,54.43
2019-01-14T00:22:02.195Z,58.80
2019-01-14T00:24:36.792Z,36.27
2019-01-14T00:27:11.628Z,39.87
2019-01-14T00:29:45.019Z,33.07
2019-01-14T00:32:18.477Z,29.80
2019-01-14T00:34:51.999Z,38.03
2019-01-14T00:37:25.959Z,43.17
2019-01-14T00:40:04.374Z,25.50
2019-01-14T00:42:38.142Z,21.73
2019-01-14T00:45:12.246Z,22.67
2019-01-14T00:47:45.854Z,25.50
2019-01-14T00:50:19.772Z,22.57
2019-01-14T00:52:53.429Z,24.47
2019-01-14T00:55:27.394Z,24.13
2019-01-14T00:58:00.895Z,21.87
2019-01-14T01:00:34.479Z,16.67
2019-01-14T01:03:08.210Z,22.23
2019-01-14T01:05:42.090Z,22.00
2019-01-14T01:08:16.542Z,19.70
2019-01-14T01:10:50.623Z,23.37
2019-01-14T01:13:24.163Z,19.07
2019-01-14T01:15:57.591Z,18.17
2019-01-14T01:18:30.968Z,14.30
2019-01-14T01:21:04.794Z,15.73
2019-01-14T01:23:38.438Z,18.77
2019-01-14T01:26:12.375Z,17.00
2019-01-14T01:28:45.989Z,16.77
2019-01-14T01:31:19.755Z,16.53
2019-01-14T01:33:53.326Z,20.53
2019-01-14T01:36:31.807Z,17.30
2019-01-14T01:39:02.378Z,32.23
2019-01-14T01:41:39.707Z,19.77
2019-01-14T01:44:13.284Z,16.93
2019-01-14T01:46:47.112Z,14.07
2019-01-14T01:49:20.799Z,15.73
2019-01-14T01:51:54.299Z,18.67
2019-01-14T01:54:28.002Z,20.67
2019-01-14T01:57:01.939Z,20.33
2019-01-14T01:59:35.266Z,20.80
2019-01-14T02:02:08.730Z,17.03
2019-01-14T02:04:42.319Z,25.00
2019-01-14T02:07:16.110Z,16.70
2019-01-14T02:09:49.575Z,16.27
2019-01-14T02:12:23.551Z,17.30
2019-01-14T02:14:58.379Z,16.43
2019-01-14T02:17:32.129Z,14.40
2019-01-14T02:20:07.439Z,15.70
2019-01-14T02:22:41.592Z,18.57
2019-01-14T02:25:16.521Z,16.03
2019-01-14T02:27:50.458Z,15.47
2019-01-14T02:30:26.625Z,21.77
2019-01-14T02:33:00.211Z,13.03
2019-01-14T02:35:33.674Z,17.37
2019-01-14T02:38:07.283Z,14.70
2019-01-14T02:40:43.322Z,16.93
2019-01-14T02:43:19.847Z,13.73
2019-01-14T02:45:53.453Z,20.93
2019-01-14T02:48:26.584Z,15.03
2019-01-14T02:51:00.176Z,16.50
2019-01-14T02:53:33.446Z,16.97
2019-01-14T02:56:07.253Z,12.10
2019-01-14T02:58:41.284Z,19.23
2019-01-14T03:01:15.206Z,18.77
2019-01-14T03:03:49.025Z,11.77
2019-01-14T03:06:22.832Z,13.77
2019-01-14T03:08:56.607Z,14.37
2019-01-14T03:11:30.063Z,11.27
2019-01-14T03:14:03.518Z,11.73
2019-01-14T03:16:36.974Z,11.13
2019-01-14T03:19:10.863Z,10.10
2019-01-14T03:21:44.488Z,13.70
2019-01-14T03:24:18.086Z,11.97
2019-01-14T03:26:51.714Z,10.33
2019-01-14T03:29:25.308Z,8.27
2019-01-14T03:31:59.110Z,9.97
2019-01-14T03:34:33.072Z,8.80
2019-01-14T03:37:06.809Z,10.17
2019-01-14T03:39:40.674Z,10.07
2019-01-14T03:42:14.332Z,10.57
2019-01-14T03:44:50.870Z,14.27
2019-01-14T03:47:24.256Z,15.83
2019-01-14T03:49:58.139Z,9.73
2019-01-14T03:52:33.866Z,13.13
2019-01-14T03:55:08.660Z,10.90
2019-01-14T03:57:42.927Z,9.60
2019-01-14T04:00:18.079Z,9.43
2019-01-14T04:02:56.107Z,11.60
2019-01-14T04:05:29.552Z,8.37
2019-01-14T04:08:03.852Z,9.47
2019-01-14T04:10:37.342Z,19.93
2019-01-14T04:13:11.327Z,11.60
2019-01-14T04:15:44.490Z,22.43
2019-01-14T04:18:18.105Z,35.53
2019-01-14T04:20:51.204Z,11.73
2019-01-14T04:23:24.983Z,7.60
2019-01-14T04:25:58.148Z,9.10
2019-01-14T04:28:32.213Z,9.70
2019-01-14T04:31:05.883Z,35.83
2019-01-14T04:33:39.816Z,16.77
2019-01-14T04:36:13.397Z,20.67
2019-01-14T04:38:47.491Z,11.07
2019-01-14T04:41:21.074Z,17.70
2019-01-14T04:43:54.888Z,19.27
2019-01-14T04:46:29.236Z,10.17
2019-01-14T04:49:02.789Z,16.97
2019-01-14T04:51:36.534Z,20.77
2019-01-14T04:54:10.078Z,23.10
2019-01-14T04:56:43.879Z,14.80
2019-01-14T04:59:17.194Z,34.33
2019-01-14T05:01:50.768Z,34.33
2019-01-14T05:04:24.433Z,27.60
2019-01-14T05:06:57.923Z,28.40
2019-01-14T05:09:31.547Z,32.77
2019-01-14T05:12:05.464Z,17.83
2019-01-14T05:14:39.226Z,23.27
2019-01-14T05:17:12.958Z,18.20
2019-01-14T05:19:46.487Z,37.27
2019-01-14T05:22:20.163Z,42.03
2019-01-14T05:24:53.771Z,37.93
2019-01-14T05:27:27.336Z,28.77
2019-01-14T05:30:00.876Z,41.90
2019-01-14T05:32:38.934Z,30.43
2019-01-14T05:35:13.123Z,25.13
2019-01-14T05:37:46.671Z,27.23
2019-01-14T05:40:22.285Z,17.40
2019-01-14T05:42:56.707Z,17.53
2019-01-14T05:45:30.208Z,38.77
2019-01-14T05:48:04.459Z,24.17
2019-01-14T05:50:38.050Z,30.13
2019-01-14T05:53:11.935Z,39.57
2019-01-14T05:55:45.626Z,29.50
2019-01-14T05:58:19.184Z,33.97
2019-01-14T06:00:53.937Z,29.17
2019-01-14T06:03:28.848Z,37.30
2019-01-14T06:06:02.691Z,34.10
2019-01-14T06:08:36.025Z,44.80
2019-01-14T06:11:09.898Z,35.33
2019-01-14T06:13:43.351Z,27.23
2019-01-14T06:16:18.492Z,30.90
2019-01-14T06:18:52.556Z,38.63
2019-01-14T06:21:28.423Z,53.10
2019-01-14T06:24:02.742Z,32.40
2019-01-14T06:26:36.842Z,37.53
2019-01-14T06:29:10.429Z,33.37
2019-01-14T06:31:44.701Z,39.80
2019-01-14T06:34:18.364Z,33.67
2019-01-14T06:36:52.519Z,23.43
2019-01-14T06:39:26.192Z,29.93
2019-01-14T06:42:00.266Z,25.27
2019-01-14T06:44:33.990Z,13.43
2019-01-14T06:47:13.787Z,15.90
2019-01-14T06:49:48.167Z,14.53
2019-01-14T06:52:21.901Z,22.90
2019-01-14T06:54:57.585Z,19.97
2019-01-14T06:57:31.635Z,16.97
2019-01-14T07:00:06.852Z,17.73
2019-01-14T07:02:40.953Z,20.10
2019-01-14T07:05:14.647Z,17.00
2019-01-14T07:07:59.489Z,17.07
2019-01-14T07:10:31.538Z,15.67
2019-01-14T07:13:06.689Z,15.40
2019-01-14T07:15:42.599Z,22.37
2019-01-14T07:18:17.533Z,18.77
2019-01-14T07:20:51.939Z,17.43
2019-01-14T07:23:26.225Z,21.13
2019-01-14T07:25:59.950Z,18.17
2019-01-14T07:28:35.780Z,26.30
2019-01-14T07:31:12.808Z,19.20
2019-01-14T07:33:47.371Z,18.60
2019-01-14T07:36:23.825Z,19.87
2019-01-14T07:38:57.657Z,22.97
2019-01-14T07:41:31.469Z,14.67
2019-01-14T07:44:05.979Z,14.37
2019-01-14T07:46:41.744Z,19.57
2019-01-14T07:49:17.109Z,14.07
2019-01-14T07:51:52.157Z,14.67
2019-01-14T07:54:26.031Z,15.27
2019-01-14T07:56:59.388Z,15.87
2019-01-14T07:59:33.135Z,16.17
2019-01-14T08:02:06.940Z,17.67
2019-01-14T08:04:42.083Z,18.17
2019-01-14T08:07:15.819Z,16.37
2019-01-14T08:09:51.385Z,18.37
2019-01-14T08:12:25.635Z,16.87
2019-01-14T08:15:02.344Z,22.37
2019-01-14T08:17:39.077Z,18.40
2019-01-14T08:20:12.915Z,22.87
2019-01-14T08:22:46.581Z,19.83
2019-01-14T08:25:21.678Z,19.47
2019-01-14T08:27:55.777Z,19.00
2019-01-14T08:30:29.376Z,19.73
2019-01-14T08:33:03.320Z,22.40
2019-01-14T08:35:36.836Z,27.93
2019-01-14T08:38:11.666Z,20.47
2019-01-14T08:40:46.120Z,18.97
2019-01-14T08:43:20.754Z,17.63
2019-01-14T08:45:55.597Z,16.13
2019-01-14T08:48:30.764Z,17.47
2019-01-14T08:51:04.436Z,11.33
2019-01-14T08:53:47.316Z,10.10
2019-01-14T08:56:22.537Z,13.20
2019-01-14T08:58:57.982Z,13.23
2019-01-14T09:01:32.255Z,9.90
2019-01-14T09:04:07.193Z,11.43
2019-01-14T09:06:43.950Z,10.67
2019-01-14T09:09:19.535Z,12.90
2019-01-14T09:11:56.846Z,8.00
2019-01-14T09:14:30.510Z,12.13
2019-01-14T09:17:05.434Z,10.27
2019-01-14T09:19:39.169Z,12.83
2019-01-14T09:22:14.279Z,9.90
2019-01-14T09:24:48.144Z,12.63
2019-01-14T09:27:22.275Z,10.17
2019-01-14T09:29:57.415Z,11.83
2019-01-14T09:32:32.130Z,10.33
2019-01-14T09:35:06.152Z,9.20
2019-01-14T09:37:42.086Z,13.33
2019-01-14T09:40:18.228Z,10.10
2019-01-14T09:42:54.180Z,11.93
2019-01-14T09:45:32.921Z,16.77
2019-01-14T09:48:09.738Z,17.50
2019-01-14T09:50:43.586Z,21.27
2019-01-14T09:53:18.667Z,22.70
2019-01-14T09:55:54.854Z,21.53
2019-01-14T09:58:29.065Z,16.27
2019-01-14T10:01:03.230Z,15.50
2019-01-14T10:03:39.327Z,15.93
2019-01-14T10:06:14.388Z,26.43
2019-01-14T10:08:48.623Z,17.97
2019-01-14T10:11:22.282Z,16.27
2019-01-14T10:13:57.746Z,18.43
2019-01-14T10:16:32.294Z,16.13
2019-01-14T10:19:09.632Z,17.93
2019-01-14T10:21:47.402Z,12.93
2019-01-14T10:24:21.522Z,50.50
2019-01-14T10:26:55.933Z,15.13
2019-01-14T10:29:29.977Z,14.90
2019-01-14T10:32:06.140Z,17.43
2019-01-14T10:34:39.376Z,16.47
2019-01-14T10:37:12.013Z,16.47
2019-01-14T10:39:47.314Z,16.10
2019-01-14T10:42:20.997Z,17.40
2019-01-14T10:45:00.410Z,15.80
2019-01-14T10:47:35.156Z,14.77
2019-01-14T10:50:11.151Z,15.23
2019-01-14T10:52:45.163Z,19.10
2019-01-14T10:55:27.024Z,16.70
2019-01-14T10:58:02.546Z,14.93
2019-01-14T11:00:37.466Z,15.37
2019-01-14T11:03:12.049Z,14.37
2019-01-14T11:05:46.017Z,26.30
2019-01-14T11:08:19.891Z,15.70
2019-01-14T11:10:53.757Z,15.27
2019-01-14T11:13:27.853Z,16.50
2019-01-14T11:16:03.331Z,17.30
2019-01-14T11:18:37.565Z,14.87
2019-01-14T11:21:14.450Z,15.37
2019-01-14T11:23:48.570Z,17.07
2019-01-14T11:26:23.990Z,19.17
2019-01-14T11:28:58.173Z,16.10
2019-01-14T11:31:32.959Z,16.87
2019-01-14T11:34:11.977Z,25.10
2019-01-14T11:36:47.939Z,19.47
2019-01-14T11:39:23.767Z,17.13
2019-01-14T11:41:59.655Z,15.87
2019-01-14T11:44:34.168Z,16.97
2019-01-14T11:47:08.221Z,18.73
2019-01-14T11:49:42.157Z,15.03
2019-01-14T11:52:16.846Z,14.83
2019-01-14T11:54:50.789Z,16.40
2019-01-14T11:57:25.579Z,14.67
2019-01-14T12:00:02.138Z,15.17
2019-01-14T12:02:39.740Z,16.30
2019-01-14T12:05:19.308Z,18.50
2019-01-14T12:07:55.172Z,16.60
2019-01-14T12:10:29.562Z,18.20
2019-01-14T12:13:04.595Z,19.40
2019-01-14T12:15:39.568Z,18.60
2019-01-14T12:18:14.675Z,15.43
2019-01-14T12:20:51.761Z,16.00
2019-01-14T12:23:25.817Z,15.70
2019-01-14T12:26:00.576Z,16.73
2019-01-14T12:28:34.931Z,19.07
2019-01-14T12:31:09.602Z,17.87
2019-01-14T12:33:44.289Z,17.00
2019-01-14T12:36:20.648Z,14.17
2019-01-14T12:38:55.315Z,20.13
2019-01-14T12:41:31.403Z,14.60
2019-01-14T12:44:06.051Z,14.87
2019-01-14T12:46:42.056Z,13.53
2019-01-14T12:49:16.975Z,12.63
2019-01-14T12:51:51.170Z,11.77
2019-01-14T12:54:26.158Z,10.40
2019-01-14T12:57:01.169Z,12.67
2019-01-14T12:59:35.505Z,31.00
2019-01-14T13:02:09.130Z,14.17
2019-01-14T13:04:42.817Z,13.90
2019-01-14T13:07:17.393Z,14.00
2019-01-14T13:09:52.172Z,18.90
2019-01-14T13:12:26.814Z,15.30
2019-01-14T13:15:01.945Z,17.60
2019-01-14T13:17:39.137Z,17.27
2019-01-14T13:20:15.748Z,13.53
2019-01-14T13:22:48.893Z,19.60
2019-01-14T13:25:24.207Z,16.50
2019-01-14T13:27:58.737Z,16.00
2019-01-14T13:30:33.966Z,13.20
2019-01-14T13:33:09.207Z,12.53
2019-01-14T13:35:43.831Z,17.47
2019-01-14T13:38:19.022Z,15.23
2019-01-14T13:40:54.781Z,9.13
2019-01-14T13:43:28.170Z,10.50
2019-01-14T13:46:02.783Z,12.97
2019-01-14T13:48:37.314Z,9.90
2019-01-14T13:51:13.417Z,8.77
2019-01-14T13:53:46.905Z,13.00
2019-01-14T13:56:20.724Z,13.57
2019-01-14T13:58:55.150Z,9.63
2019-01-14T14:01:29.725Z,7.27
2019-01-14T14:04:08.465Z,10.40
2019-01-14T14:06:43.802Z,10.67
2019-01-14T14:09:19.167Z,6.00
2019-01-14T14:11:53.233Z,7.20
2019-01-14T14:14:27.213Z,7.07
2019-01-14T14:17:02.876Z,6.30
2019-01-14T14:19:37.402Z,6.90
2019-01-14T14:22:12.437Z,8.00
2019-01-14T14:24:50.927Z,6.23
2019-01-14T14:27:25.266Z,7.97
2019-01-14T14:29:58.419Z,9.97
2019-01-14T14:32:32.206Z,8.30
2019-01-14T14:35:07.933Z,11.43
2019-01-14T14:37:44.825Z,12.53
2019-01-14T14:40:19.663Z,11.77
2019-01-14T14:42:55.517Z,11.13
2019-01-14T14:45:29.578Z,10.53
2019-01-14T14:48:22.385Z,11.60
2019-01-14T14:50:56.980Z,10.27
2019-01-14T14:53:30.391Z,10.00
2019-01-14T14:56:06.663Z,10.13
2019-01-14T14:58:40.396Z,11.70
2019-01-14T15:01:14.979Z,10.50
2019-01-14T15:03:51.673Z,13.20
2019-01-14T15:06:27.496Z,12.63
2019-01-14T15:09:10.099Z,12.63
2019-01-14T15:11:44.673Z,17.37
2019-01-14T15:14:18.001Z,22.07
2019-01-14T15:16:53.973Z,26.70
2019-01-14T15:19:27.467Z,24.93
2019-01-14T15:22:02.075Z,21.77
2019-01-14T15:24:36.261Z,22.93
2019-01-14T15:27:10.743Z,25.60
2019-01-14T15:29:45.097Z,25.33
2019-01-14T15:32:20.267Z,26.97
2019-01-14T15:34:54.241Z,25.20
2019-01-14T15:37:29.573Z,29.03
2019-01-14T15:40:05.574Z,36.37
2019-01-14T15:42:40.070Z,28.13
2019-01-14T15:45:16.564Z,28.07
2019-01-14T15:47:51.623Z,32.00
2019-01-14T15:50:26.090Z,31.90
2019-01-14T15:52:59.353Z,30.23
2019-01-14T15:55:34.832Z,33.20
2019-01-14T15:58:09.801Z,31.63
2019-01-14T16:00:43.351Z,32.07
2019-01-14T16:03:17.611Z,39.13
2019-01-14T16:05:52.653Z,51.87
2019-01-14T16:08:27.114Z,46.67
2019-01-14T16:11:01.017Z,53.70
2019-01-14T16:13:36.186Z,54.33
2019-01-14T16:16:10.970Z,54.47
2019-01-14T16:18:45.831Z,55.77
2019-01-14T16:21:20.519Z,62.37
2019-01-14T16:23:54.341Z,63.10
2019-01-14T16:26:42.387Z,69.87
2019-01-14T16:29:16.257Z,60.63
2019-01-14T16:31:51.433Z,66.63
2019-01-14T16:34:25.244Z,60.40
2019-01-14T16:36:58.967Z,63.83
2019-01-14T16:39:33.725Z,61.73
2019-01-14T16:42:11.705Z,66.57
2019-01-14T16:44:47.819Z,57.40
2019-01-14T16:47:22.393Z,78.07
2019-01-14T16:49:57.075Z,47.70
2019-01-14T16:52:30.164Z,51.60
2019-01-14T16:55:05.990Z,70.13
2019-01-14T16:57:41.207Z,45.97
2019-01-14T17:00:18.215Z,47.50
2019-01-14T17:02:53.093Z,63.53
2019-01-14T17:08:50.015Z,81.80
2019-01-14T17:11:24.681Z,69.83
2019-01-14T17:13:58.754Z,55.77
2019-01-14T17:16:33.214Z,45.80
2019-01-14T17:19:07.157Z,61.03
2019-01-14T17:21:41.791Z,36.27
2019-01-14T17:24:17.732Z,42.23
2019-01-14T17:26:52.151Z,38.90
2019-01-14T17:29:27.359Z,41.97
2019-01-14T17:32:00.848Z,36.53
2019-01-14T17:34:35.582Z,43.53
2019-01-14T17:37:09.763Z,46.67
2019-01-14T17:39:44.292Z,39.90
2019-01-14T17:42:18.174Z,47.03
2019-01-14T17:44:52.007Z,46.77
2019-01-14T17:47:26.393Z,53.93
2019-01-14T17:50:00.997Z,57.27
2019-01-14T17:52:41.499Z,66.03
2019-01-14T17:55:16.023Z,64.30
2019-01-14T17:57:49.501Z,67.47
2019-01-14T18:00:30.235Z,79.33
2019-01-14T18:03:04.424Z,84.33
2019-01-14T18:05:38.602Z,90.87
2019-01-14T18:08:17.811Z,93.30
2019-01-14T18:10:52.456Z,96.77
2019-01-14T18:13:28.500Z,84.27
2019-01-14T18:16:02.921Z,90.43
2019-01-14T18:18:36.733Z,80.20
2019-01-14T18:21:13.946Z,74.70
2019-01-14T18:23:45.595Z,73.63
2019-01-14T18:26:21.257Z,72.30
2019-01-14T18:28:56.694Z,72.23
2019-01-14T18:31:30.879Z,73.80
2019-01-14T18:34:06.216Z,69.63
2019-01-14T18:36:40.594Z,71.10
2019-01-14T18:39:14.353Z,74.07
2019-01-14T18:41:48.520Z,79.43
2019-01-14T18:44:22.113Z,81.87
2019-01-14T18:46:56.855Z,83.00
2019-01-14T18:49:31.465Z,87.80
2019-01-14T18:52:06.016Z,88.87
2019-01-14T18:54:40.019Z,87.03
2019-01-14T18:57:13.694Z,82.60
2019-01-14T18:59:47.372Z,67.63
2019-01-14T19:02:22.095Z,73.93
2019-01-14T19:04:57.153Z,72.80
2019-01-14T19:07:30.927Z,71.77
2019-01-14T19:10:04.750Z,89.60
2019-01-14T19:12:39.699Z,73.00
2019-01-14T19:15:16.671Z,98.33
2019-01-14T19:17:50.537Z,82.00
2019-01-14T19:20:26.605Z,99.90
2019-01-14T19:23:00.753Z,86.03
2019-01-14T19:25:34.345Z,93.50
2019-01-14T19:28:08.643Z,81.07
2019-01-14T19:30:42.205Z,98.53
2019-01-14T19:33:16.165Z,80.17
2019-01-14T19:35:49.882Z,88.70
2019-01-14T19:38:23.553Z,81.43
2019-01-14T19:41:01.711Z,80.10
2019-01-14T19:43:32.489Z,87.43
2019-01-14T19:46:06.138Z,78.10
2019-01-14T19:48:40.065Z,80.10
2019-01-14T19:51:15.148Z,82.40
2019-01-14T19:53:49.279Z,78.87
2019-01-14T19:56:23.759Z,75.97
2019-01-14T19:58:57.730Z,106.80
2019-01-14T20:01:31.440Z,99.50
2019-01-14T20:04:05.716Z,91.87
2019-01-14T20:06:45.053Z,83.10
2019-01-14T20:09:20.051Z,94.13
2019-01-14T20:11:53.758Z,110.03
2019-01-14T20:14:28.194Z,98.43
2019-01-14T20:17:01.695Z,100.10
2019-01-14T20:19:35.519Z,78.60
2019-01-14T20:22:09.212Z,94.13
2019-01-14T20:24:41.551Z,71.90
2019-01-14T20:27:15.120Z,62.40
2019-01-14T20:29:49.238Z,56.10
2019-01-14T20:32:24.872Z,55.83
2019-01-14T20:34:59.040Z,69.10
2019-01-14T20:37:32.608Z,66.07
2019-01-14T20:40:07.121Z,71.03
2019-01-14T20:42:40.850Z,66.30
2019-01-14T20:45:15.501Z,64.27
2019-01-14T20:47:50.746Z,64.17
2019-01-14T20:50:24.765Z,67.27
2019-01-14T20:52:58.403Z,65.17
2019-01-14T20:55:33.973Z,57.87
2019-01-14T20:58:08.581Z,68.20
2019-01-14T21:00:42.807Z,58.50
2019-01-14T21:03:16.302Z,51.60
2019-01-14T21:05:50.119Z,60.67
2019-01-14T21:08:23.733Z,38.50
2019-01-14T21:10:58.828Z,33.80
2019-01-14T21:13:32.337Z,41.07
2019-01-14T21:16:06.750Z,43.20
2019-01-14T21:18:40.364Z,34.13
2019-01-14T21:21:14.445Z,34.13
2019-01-14T21:23:48.004Z,34.47
2019-01-14T21:26:23.970Z,40.03
2019-01-14T21:29:02.331Z,40.20
2019-01-14T21:31:39.084Z,41.13
2019-01-14T21:34:12.685Z,73.97
2019-01-14T21:36:48.808Z,46.40
2019-01-14T21:39:23.326Z,39.03
2019-01-14T21:41:56.936Z,39.53
2019-01-14T21:44:30.570Z,49.93
2019-01-14T21:47:04.299Z,47.07
2019-01-14T21:49:37.788Z,55.63
2019-01-14T21:52:11.596Z,40.40
2019-01-14T21:54:44.820Z,48.73
2019-01-14T21:57:18.546Z,50.03
2019-01-14T21:59:52.274Z,24.67
2019-01-14T22:02:26.043Z,35.27
2019-01-14T22:05:01.818Z,36.70
2019-01-14T22:07:35.597Z,28.70
2019-01-14T22:10:12.319Z,40.87
2019-01-14T22:12:46.142Z,34.73
2019-01-14T22:15:20.041Z,39.73
2019-01-14T22:17:54.481Z,44.30
2019-01-14T22:20:29.799Z,45.00
2019-01-14T22:23:03.877Z,52.80
2019-01-14T22:25:37.498Z,54.30
2019-01-14T22:28:11.542Z,53.90
2019-01-14T22:30:45.570Z,73.97
2019-01-14T22:33:19.030Z,71.17
2019-01-14T22:35:52.692Z,74.90
2019-01-14T22:38:26.760Z,73.73
2019-01-14T22:41:01.115Z,86.80
2019-01-14T22:43:34.884Z,72.87
2019-01-14T22:46:09.403Z,70.23
2019-01-14T22:48:43.105Z,73.53
2019-01-14T22:51:16.581Z,80.33
2019-01-14T22:53:50.317Z,72.97
2019-01-14T22:56:24.037Z,70.87
2019-01-14T22:58:58.461Z,60.90
2019-01-14T23:01:42.469Z,68.83
2019-01-14T23:04:16.955Z,91.90
2019-01-14T23:06:50.483Z,72.03
2019-01-14T23:09:24.914Z,60.23
2019-01-14T23:11:58.388Z,61.37
2019-01-14T23:14:32.160Z,67.07
2019-01-14T23:17:05.766Z,72.33
2019-01-14T23:19:40.565Z,71.10
2019-01-14T23:22:16.846Z,66.60
2019-01-14T23:24:50.798Z,63.33
2019-01-14T23:27:24.319Z,69.10
2019-01-14T23:29:58.295Z,71.57
2019-01-14T23:32:31.851Z,53.70
2019-01-14T23:35:05.943Z,54.30
2019-01-14T23:37:40.127Z,58.47
2019-01-14T23:40:15.175Z,49.60
2019-01-14T23:42:48.657Z,56.73
2019-01-14T23:45:22.261Z,48.77
2019-01-14T23:47:55.913Z,52.70
2019-01-14T23:50:30.359Z,55.27
2019-01-14T23:53:03.748Z,54.23
2019-01-14T23:55:38.047Z,50.93
2019-01-14T23:58:14.082Z,49.13
